sensor_id;sensor_type;location;lat;lon;timestamp;P1;durP1;ratioP1;P2;durP2;ratioP2
32080;SDS011;18593;51.426;7.030;2023-04-24T00:01:52;3.03;;;0.98;;
32080;SDS011;18593;51.426;7.030;2023-04-24T00:04:20;4.30;;;0.90;;
32080;SDS011;18593;51.426;7.030;2023-04-24T00:06:50;3.58;;;0.90;;
32080;SDS011;18593;51.426;7.030;2023-04-24T00:11:49;2.20;;;1.08;;
32080;SDS011;18593;51.426;7.030;2023-04-24T00:14:16;2.97;;;1.10;;
32080;SDS011;18593;51.426;7.030;2023-04-24T00:16:44;2.40;;;1.20;;
32080;SDS011;18593;51.426;7.030;2023-04-24T00:19:12;6.15;;;1.48;;
32080;SDS011;18593;51.426;7.030;2023-04-24T00:21:39;3.03;;;1.15;;
32080;SDS011;18593;51.426;7.030;2023-04-24T00:24:07;4.60;;;1.30;;
32080;SDS011;18593;51.426;7.030;2023-04-24T00:26:35;4.75;;;1.40;;
32080;SDS011;18593;51.426;7.030;2023-04-24T00:29:02;4.65;;;1.20;;
32080;SDS011;18593;51.426;7.030;2023-04-24T00:31:29;2.80;;;1.20;;
32080;SDS011;18593;51.426;7.030;2023-04-24T00:33:57;5.60;;;1.20;;
32080;SDS011;18593;51.426;7.030;2023-04-24T00:36:26;4.25;;;1.30;;
32080;SDS011;18593;51.426;7.030;2023-04-24T00:38:54;3.72;;;1.30;;
32080;SDS011;18593;51.426;7.030;2023-04-24T00:41:21;2.80;;;1.23;;
32080;SDS011;18593;51.426;7.030;2023-04-24T00:43:49;5.10;;;1.60;;
32080;SDS011;18593;51.426;7.030;2023-04-24T00:46:16;2.80;;;1.40;;
32080;SDS011;18593;51.426;7.030;2023-04-24T00:48:43;4.13;;;1.38;;
32080;SDS011;18593;51.426;7.030;2023-04-24T00:51:11;3.00;;;1.38;;
32080;SDS011;18593;51.426;7.030;2023-04-24T00:53:40;2.67;;;1.20;;
32080;SDS011;18593;51.426;7.030;2023-04-24T00:56:07;2.53;;;1.20;;
32080;SDS011;18593;51.426;7.030;2023-04-24T00:58:34;2.75;;;1.25;;
32080;SDS011;18593;51.426;7.030;2023-04-24T01:01:01;2.78;;;1.42;;
32080;SDS011;18593;51.426;7.030;2023-04-24T01:03:32;3.50;;;1.35;;
32080;SDS011;18593;51.426;7.030;2023-04-24T01:06:02;3.03;;;1.40;;
32080;SDS011;18593;51.426;7.030;2023-04-24T01:08:30;6.78;;;1.70;;
32080;SDS011;18593;51.426;7.030;2023-04-24T01:11:00;3.85;;;1.63;;
32080;SDS011;18593;51.426;7.030;2023-04-24T01:13:31;4.63;;;1.85;;
32080;SDS011;18593;51.426;7.030;2023-04-24T01:15:59;4.57;;;1.67;;
32080;SDS011;18593;51.426;7.030;2023-04-24T01:18:27;3.38;;;1.88;;
32080;SDS011;18593;51.426;7.030;2023-04-24T01:20:56;4.22;;;2.05;;
32080;SDS011;18593;51.426;7.030;2023-04-24T01:23:26;4.05;;;1.80;;
32080;SDS011;18593;51.426;7.030;2023-04-24T01:25:54;5.45;;;2.58;;
32080;SDS011;18593;51.426;7.030;2023-04-24T01:28:24;4.57;;;2.13;;
32080;SDS011;18593;51.426;7.030;2023-04-24T01:30:52;5.70;;;2.50;;
32080;SDS011;18593;51.426;7.030;2023-04-24T01:33:22;5.68;;;2.40;;
32080;SDS011;18593;51.426;7.030;2023-04-24T01:35:50;4.93;;;2.88;;
32080;SDS011;18593;51.426;7.030;2023-04-24T01:38:17;6.90;;;3.20;;
32080;SDS011;18593;51.426;7.030;2023-04-24T01:40:46;5.72;;;3.00;;
32080;SDS011;18593;51.426;7.030;2023-04-24T01:43:13;9.93;;;3.25;;
32080;SDS011;18593;51.426;7.030;2023-04-24T01:45:41;5.72;;;3.03;;
32080;SDS011;18593;51.426;7.030;2023-04-24T01:48:08;5.20;;;3.20;;
32080;SDS011;18593;51.426;7.030;2023-04-24T01:50:35;4.78;;;2.97;;
32080;SDS011;18593;51.426;7.030;2023-04-24T01:53:03;8.20;;;2.92;;
32080;SDS011;18593;51.426;7.030;2023-04-24T01:55:30;7.97;;;3.20;;
32080;SDS011;18593;51.426;7.030;2023-04-24T01:57:59;5.88;;;3.60;;
32080;SDS011;18593;51.426;7.030;2023-04-24T02:00:27;5.90;;;3.15;;
32080;SDS011;18593;51.426;7.030;2023-04-24T02:02:54;6.53;;;3.72;;
32080;SDS011;18593;51.426;7.030;2023-04-24T02:05:24;6.03;;;3.38;;
32080;SDS011;18593;51.426;7.030;2023-04-24T02:07:51;7.53;;;3.47;;
32080;SDS011;18593;51.426;7.030;2023-04-24T02:10:18;6.70;;;4.45;;
32080;SDS011;18593;51.426;7.030;2023-04-24T02:12:46;10.20;;;5.35;;
32080;SDS011;18593;51.426;7.030;2023-04-24T02:15:15;9.15;;;5.95;;
32080;SDS011;18593;51.426;7.030;2023-04-24T02:17:43;10.10;;;5.70;;
32080;SDS011;18593;51.426;7.030;2023-04-24T02:20:10;10.32;;;5.15;;
32080;SDS011;18593;51.426;7.030;2023-04-24T02:22:37;9.73;;;5.60;;
32080;SDS011;18593;51.426;7.030;2023-04-24T02:25:05;12.75;;;6.05;;
32080;SDS011;18593;51.426;7.030;2023-04-24T02:27:33;11.20;;;5.97;;
32080;SDS011;18593;51.426;7.030;2023-04-24T02:30:04;11.43;;;6.60;;
32080;SDS011;18593;51.426;7.030;2023-04-24T02:32:34;10.05;;;6.15;;
32080;SDS011;18593;51.426;7.030;2023-04-24T02:35:01;10.02;;;6.55;;
32080;SDS011;18593;51.426;7.030;2023-04-24T02:37:29;10.90;;;6.53;;
32080;SDS011;18593;51.426;7.030;2023-04-24T02:39:56;14.43;;;6.93;;
32080;SDS011;18593;51.426;7.030;2023-04-24T02:42:23;13.98;;;7.53;;
32080;SDS011;18593;51.426;7.030;2023-04-24T02:44:51;13.50;;;7.68;;
32080;SDS011;18593;51.426;7.030;2023-04-24T02:47:18;12.93;;;7.47;;
32080;SDS011;18593;51.426;7.030;2023-04-24T02:49:46;12.40;;;7.53;;
32080;SDS011;18593;51.426;7.030;2023-04-24T02:52:14;16.58;;;8.20;;
32080;SDS011;18593;51.426;7.030;2023-04-24T02:54:42;16.00;;;8.15;;
32080;SDS011;18593;51.426;7.030;2023-04-24T02:57:09;16.15;;;8.23;;
32080;SDS011;18593;51.426;7.030;2023-04-24T02:59:39;13.05;;;8.50;;
32080;SDS011;18593;51.426;7.030;2023-04-24T03:02:06;15.23;;;8.90;;
32080;SDS011;18593;51.426;7.030;2023-04-24T03:04:33;14.38;;;9.00;;
32080;SDS011;18593;51.426;7.030;2023-04-24T03:07:02;16.00;;;8.80;;
32080;SDS011;18593;51.426;7.030;2023-04-24T03:09:30;16.88;;;8.73;;
32080;SDS011;18593;51.426;7.030;2023-04-24T03:11:58;14.85;;;9.88;;
32080;SDS011;18593;51.426;7.030;2023-04-24T03:14:25;16.92;;;9.70;;
32080;SDS011;18593;51.426;7.030;2023-04-24T03:16:52;18.35;;;9.77;;
32080;SDS011;18593;51.426;7.030;2023-04-24T03:19:19;17.00;;;8.77;;
32080;SDS011;18593;51.426;7.030;2023-04-24T03:21:57;17.35;;;9.27;;
32080;SDS011;18593;51.426;7.030;2023-04-24T03:24:26;18.00;;;9.73;;
32080;SDS011;18593;51.426;7.030;2023-04-24T03:26:54;16.30;;;10.15;;
32080;SDS011;18593;51.426;7.030;2023-04-24T03:29:41;17.25;;;10.68;;
32080;SDS011;18593;51.426;7.030;2023-04-24T03:32:09;16.05;;;9.77;;
32080;SDS011;18593;51.426;7.030;2023-04-24T03:34:37;18.33;;;9.73;;
32080;SDS011;18593;51.426;7.030;2023-04-24T03:37:06;18.02;;;10.43;;
32080;SDS011;18593;51.426;7.030;2023-04-24T03:39:36;15.63;;;9.05;;
32080;SDS011;18593;51.426;7.030;2023-04-24T03:42:03;21.05;;;10.55;;
32080;SDS011;18593;51.426;7.030;2023-04-24T03:44:42;20.02;;;10.10;;
32080;SDS011;18593;51.426;7.030;2023-04-24T03:47:09;17.95;;;10.82;;
32080;SDS011;18593;51.426;7.030;2023-04-24T03:49:37;18.85;;;10.13;;
32080;SDS011;18593;51.426;7.030;2023-04-24T03:52:04;15.73;;;9.65;;
32080;SDS011;18593;51.426;7.030;2023-04-24T03:54:31;15.80;;;9.25;;
32080;SDS011;18593;51.426;7.030;2023-04-24T03:57:00;17.85;;;9.95;;
32080;SDS011;18593;51.426;7.030;2023-04-24T03:59:30;15.45;;;8.85;;
32080;SDS011;18593;51.426;7.030;2023-04-24T04:02:09;17.98;;;10.18;;
32080;SDS011;18593;51.426;7.030;2023-04-24T04:04:36;20.15;;;10.27;;
32080;SDS011;18593;51.426;7.030;2023-04-24T04:07:04;14.77;;;8.95;;
32080;SDS011;18593;51.426;7.030;2023-04-24T04:09:33;18.02;;;9.82;;
32080;SDS011;18593;51.426;7.030;2023-04-24T04:12:01;19.35;;;9.88;;
32080;SDS011;18593;51.426;7.030;2023-04-24T04:14:31;19.85;;;9.82;;
32080;SDS011;18593;51.426;7.030;2023-04-24T04:16:58;18.15;;;9.88;;
32080;SDS011;18593;51.426;7.030;2023-04-24T04:19:25;16.98;;;9.75;;
32080;SDS011;18593;51.426;7.030;2023-04-24T04:21:53;16.60;;;9.55;;
32080;SDS011;18593;51.426;7.030;2023-04-24T04:24:33;19.27;;;10.00;;
32080;SDS011;18593;51.426;7.030;2023-04-24T04:27:04;19.85;;;9.50;;
32080;SDS011;18593;51.426;7.030;2023-04-24T04:29:41;16.58;;;9.23;;
32080;SDS011;18593;51.426;7.030;2023-04-24T04:32:10;18.55;;;9.65;;
32080;SDS011;18593;51.426;7.030;2023-04-24T04:34:37;15.90;;;9.15;;
32080;SDS011;18593;51.426;7.030;2023-04-24T04:37:07;17.55;;;10.02;;
32080;SDS011;18593;51.426;7.030;2023-04-24T04:39:43;17.40;;;9.70;;
32080;SDS011;18593;51.426;7.030;2023-04-24T04:42:18;18.52;;;9.38;;
32080;SDS011;18593;51.426;7.030;2023-04-24T04:44:45;15.30;;;9.02;;
32080;SDS011;18593;51.426;7.030;2023-04-24T04:47:17;12.80;;;9.05;;
32080;SDS011;18593;51.426;7.030;2023-04-24T04:49:48;17.02;;;9.75;;
32080;SDS011;18593;51.426;7.030;2023-04-24T04:52:20;17.60;;;10.15;;
32080;SDS011;18593;51.426;7.030;2023-04-24T04:54:54;14.95;;;8.95;;
32080;SDS011;18593;51.426;7.030;2023-04-24T04:57:27;16.38;;;9.10;;
32080;SDS011;18593;51.426;7.030;2023-04-24T04:59:55;13.95;;;8.75;;
32080;SDS011;18593;51.426;7.030;2023-04-24T05:02:35;16.13;;;9.20;;
32080;SDS011;18593;51.426;7.030;2023-04-24T05:05:03;17.25;;;8.82;;
32080;SDS011;18593;51.426;7.030;2023-04-24T05:07:32;13.68;;;8.32;;
32080;SDS011;18593;51.426;7.030;2023-04-24T05:09:59;15.18;;;9.15;;
32080;SDS011;18593;51.426;7.030;2023-04-24T05:12:28;14.27;;;8.77;;
32080;SDS011;18593;51.426;7.030;2023-04-24T05:14:56;14.55;;;8.60;;
32080;SDS011;18593;51.426;7.030;2023-04-24T05:17:24;14.23;;;8.55;;
32080;SDS011;18593;51.426;7.030;2023-04-24T05:19:54;12.90;;;7.50;;
32080;SDS011;18593;51.426;7.030;2023-04-24T05:22:21;19.08;;;8.60;;
32080;SDS011;18593;51.426;7.030;2023-04-24T05:24:51;17.13;;;8.85;;
32080;SDS011;18593;51.426;7.030;2023-04-24T05:27:40;14.65;;;8.10;;
32080;SDS011;18593;51.426;7.030;2023-04-24T05:30:13;14.98;;;8.23;;
32080;SDS011;18593;51.426;7.030;2023-04-24T05:32:40;14.88;;;8.05;;
32080;SDS011;18593;51.426;7.030;2023-04-24T05:35:08;14.20;;;8.80;;
32080;SDS011;18593;51.426;7.030;2023-04-24T05:37:35;14.57;;;9.00;;
32080;SDS011;18593;51.426;7.030;2023-04-24T05:40:03;14.15;;;8.30;;
32080;SDS011;18593;51.426;7.030;2023-04-24T05:42:31;11.93;;;8.68;;
32080;SDS011;18593;51.426;7.030;2023-04-24T05:45:00;12.07;;;8.07;;
32080;SDS011;18593;51.426;7.030;2023-04-24T05:47:27;16.33;;;8.95;;
32080;SDS011;18593;51.426;7.030;2023-04-24T05:49:55;13.38;;;8.50;;
32080;SDS011;18593;51.426;7.030;2023-04-24T05:52:22;12.25;;;8.40;;
32080;SDS011;18593;51.426;7.030;2023-04-24T05:54:50;13.68;;;8.27;;
32080;SDS011;18593;51.426;7.030;2023-04-24T05:57:21;16.42;;;9.07;;
32080;SDS011;18593;51.426;7.030;2023-04-24T05:59:55;12.73;;;8.05;;
32080;SDS011;18593;51.426;7.030;2023-04-24T06:02:25;16.33;;;8.98;;
32080;SDS011;18593;51.426;7.030;2023-04-24T06:04:58;11.52;;;8.43;;
32080;SDS011;18593;51.426;7.030;2023-04-24T06:07:25;16.50;;;8.73;;
32080;SDS011;18593;51.426;7.030;2023-04-24T06:09:53;14.07;;;9.00;;
32080;SDS011;18593;51.426;7.030;2023-04-24T06:12:21;12.90;;;8.32;;
32080;SDS011;18593;51.426;7.030;2023-04-24T06:14:55;24.27;;;9.00;;
32080;SDS011;18593;51.426;7.030;2023-04-24T06:17:43;15.70;;;7.70;;
32080;SDS011;18593;51.426;7.030;2023-04-24T06:20:13;13.77;;;8.60;;
32080;SDS011;18593;51.426;7.030;2023-04-24T06:22:40;10.73;;;7.35;;
32080;SDS011;18593;51.426;7.030;2023-04-24T06:25:09;13.35;;;7.43;;
32080;SDS011;18593;51.426;7.030;2023-04-24T06:27:36;11.73;;;7.88;;
32080;SDS011;18593;51.426;7.030;2023-04-24T06:30:04;10.88;;;7.75;;
32080;SDS011;18593;51.426;7.030;2023-04-24T06:32:32;11.27;;;7.45;;
32080;SDS011;18593;51.426;7.030;2023-04-24T06:35:01;13.40;;;7.55;;
32080;SDS011;18593;51.426;7.030;2023-04-24T06:37:28;11.57;;;7.13;;
32080;SDS011;18593;51.426;7.030;2023-04-24T06:39:57;12.10;;;7.63;;
32080;SDS011;18593;51.426;7.030;2023-04-24T06:42:24;11.43;;;7.25;;
32080;SDS011;18593;51.426;7.030;2023-04-24T06:44:51;14.52;;;8.40;;
32080;SDS011;18593;51.426;7.030;2023-04-24T06:47:18;11.65;;;7.05;;
32080;SDS011;18593;51.426;7.030;2023-04-24T06:49:46;10.50;;;7.47;;
32080;SDS011;18593;51.426;7.030;2023-04-24T06:52:14;10.07;;;6.90;;
32080;SDS011;18593;51.426;7.030;2023-04-24T06:54:42;12.65;;;7.20;;
32080;SDS011;18593;51.426;7.030;2023-04-24T06:57:09;15.07;;;8.10;;
32080;SDS011;18593;51.426;7.030;2023-04-24T06:59:36;13.25;;;7.63;;
32080;SDS011;18593;51.426;7.030;2023-04-24T07:02:04;11.90;;;7.30;;
32080;SDS011;18593;51.426;7.030;2023-04-24T07:04:31;11.38;;;6.40;;
32080;SDS011;18593;51.426;7.030;2023-04-24T07:06:58;11.45;;;6.20;;
32080;SDS011;18593;51.426;7.030;2023-04-24T07:09:27;11.82;;;6.68;;
32080;SDS011;18593;51.426;7.030;2023-04-24T07:11:54;8.45;;;5.82;;
32080;SDS011;18593;51.426;7.030;2023-04-24T07:14:22;8.93;;;5.70;;
32080;SDS011;18593;51.426;7.030;2023-04-24T07:16:49;7.57;;;5.00;;
32080;SDS011;18593;51.426;7.030;2023-04-24T07:19:16;10.05;;;5.53;;
32080;SDS011;18593;51.426;7.030;2023-04-24T07:21:43;12.80;;;5.50;;
32080;SDS011;18593;51.426;7.030;2023-04-24T07:24:11;8.20;;;4.70;;
32080;SDS011;18593;51.426;7.030;2023-04-24T07:26:39;7.47;;;4.70;;
32080;SDS011;18593;51.426;7.030;2023-04-24T07:29:07;7.07;;;4.40;;
32080;SDS011;18593;51.426;7.030;2023-04-24T07:31:34;6.18;;;3.83;;
32080;SDS011;18593;51.426;7.030;2023-04-24T07:34:02;6.88;;;3.97;;
32080;SDS011;18593;51.426;7.030;2023-04-24T07:36:29;6.40;;;3.70;;
32080;SDS011;18593;51.426;7.030;2023-04-24T07:38:57;9.02;;;3.95;;
32080;SDS011;18593;51.426;7.030;2023-04-24T07:41:24;4.90;;;3.03;;
32080;SDS011;18593;51.426;7.030;2023-04-24T07:43:54;4.60;;;3.20;;
32080;SDS011;18593;51.426;7.030;2023-04-24T07:46:21;5.13;;;2.85;;
32080;SDS011;18593;51.426;7.030;2023-04-24T07:48:49;4.32;;;2.50;;
32080;SDS011;18593;51.426;7.030;2023-04-24T07:51:17;4.72;;;2.13;;
32080;SDS011;18593;51.426;7.030;2023-04-24T07:53:44;3.95;;;1.50;;
32080;SDS011;18593;51.426;7.030;2023-04-24T07:56:12;3.95;;;1.70;;
32080;SDS011;18593;51.426;7.030;2023-04-24T07:58:39;2.22;;;0.98;;
32080;SDS011;18593;51.426;7.030;2023-04-24T08:01:08;2.33;;;1.02;;
32080;SDS011;18593;51.426;7.030;2023-04-24T08:03:35;2.72;;;0.90;;
32080;SDS011;18593;51.426;7.030;2023-04-24T08:06:02;3.35;;;1.08;;
32080;SDS011;18593;51.426;7.030;2023-04-24T08:08:30;2.67;;;1.00;;
32080;SDS011;18593;51.426;7.030;2023-04-24T08:10:57;1.95;;;0.98;;
32080;SDS011;18593;51.426;7.030;2023-04-24T08:13:25;2.33;;;0.85;;
32080;SDS011;18593;51.426;7.030;2023-04-24T08:15:52;2.90;;;0.95;;
32080;SDS011;18593;51.426;7.030;2023-04-24T08:18:21;1.45;;;0.70;;
32080;SDS011;18593;51.426;7.030;2023-04-24T08:20:48;1.92;;;0.90;;
32080;SDS011;18593;51.426;7.030;2023-04-24T08:23:16;2.40;;;1.00;;
32080;SDS011;18593;51.426;7.030;2023-04-24T08:25:43;3.65;;;1.08;;
32080;SDS011;18593;51.426;7.030;2023-04-24T08:28:10;3.60;;;1.17;;
32080;SDS011;18593;51.426;7.030;2023-04-24T08:30:37;3.25;;;0.90;;
32080;SDS011;18593;51.426;7.030;2023-04-24T08:33:05;2.08;;;0.90;;
32080;SDS011;18593;51.426;7.030;2023-04-24T08:35:33;2.83;;;1.15;;
32080;SDS011;18593;51.426;7.030;2023-04-24T08:38:00;2.03;;;0.90;;
32080;SDS011;18593;51.426;7.030;2023-04-24T08:40:28;2.53;;;1.02;;
32080;SDS011;18593;51.426;7.030;2023-04-24T08:42:57;7.13;;;1.20;;
32080;SDS011;18593;51.426;7.030;2023-04-24T08:45:26;2.58;;;1.10;;
32080;SDS011;18593;51.426;7.030;2023-04-24T08:47:53;5.00;;;1.50;;
32080;SDS011;18593;51.426;7.030;2023-04-24T08:50:21;5.30;;;1.60;;
32080;SDS011;18593;51.426;7.030;2023-04-24T08:52:50;3.05;;;1.67;;
32080;SDS011;18593;51.426;7.030;2023-04-24T08:55:19;4.40;;;2.03;;
32080;SDS011;18593;51.426;7.030;2023-04-24T08:57:49;4.45;;;1.85;;
32080;SDS011;18593;51.426;7.030;2023-04-24T09:00:19;4.47;;;1.90;;
32080;SDS011;18593;51.426;7.030;2023-04-24T09:02:47;3.13;;;1.70;;
32080;SDS011;18593;51.426;7.030;2023-04-24T09:05:16;5.93;;;2.05;;
32080;SDS011;18593;51.426;7.030;2023-04-24T09:07:45;5.53;;;1.83;;
32080;SDS011;18593;51.426;7.030;2023-04-24T09:10:17;5.60;;;1.90;;
32080;SDS011;18593;51.426;7.030;2023-04-24T09:12:44;4.05;;;1.77;;
32080;SDS011;18593;51.426;7.030;2023-04-24T09:15:12;6.07;;;1.58;;
32080;SDS011;18593;51.426;7.030;2023-04-24T09:17:40;2.85;;;1.58;;
32080;SDS011;18593;51.426;7.030;2023-04-24T09:20:15;4.25;;;2.30;;
32080;SDS011;18593;51.426;7.030;2023-04-24T09:22:53;6.28;;;2.15;;
32080;SDS011;18593;51.426;7.030;2023-04-24T09:25:22;3.72;;;2.00;;
32080;SDS011;18593;51.426;7.030;2023-04-24T09:27:59;6.88;;;2.75;;
32080;SDS011;18593;51.426;7.030;2023-04-24T09:33:09;6.90;;;4.50;;
32080;SDS011;18593;51.426;7.030;2023-04-24T09:38:07;8.20;;;4.93;;
32080;SDS011;18593;51.426;7.030;2023-04-24T09:40:35;12.35;;;5.70;;
32080;SDS011;18593;51.426;7.030;2023-04-24T09:43:03;11.73;;;5.45;;
32080;SDS011;18593;51.426;7.030;2023-04-24T09:45:35;9.43;;;5.32;;
32080;SDS011;18593;51.426;7.030;2023-04-24T09:48:03;10.23;;;4.63;;
32080;SDS011;18593;51.426;7.030;2023-04-24T09:50:31;7.47;;;4.63;;
32080;SDS011;18593;51.426;7.030;2023-04-24T09:53:02;10.30;;;3.75;;
32080;SDS011;18593;51.426;7.030;2023-04-24T09:55:32;8.05;;;3.65;;
32080;SDS011;18593;51.426;7.030;2023-04-24T09:58:01;5.85;;;3.60;;
32080;SDS011;18593;51.426;7.030;2023-04-24T10:00:30;8.23;;;3.92;;
32080;SDS011;18593;51.426;7.030;2023-04-24T10:02:59;6.45;;;3.72;;
32080;SDS011;18593;51.426;7.030;2023-04-24T10:05:29;6.03;;;3.90;;
32080;SDS011;18593;51.426;7.030;2023-04-24T10:07:59;7.43;;;4.40;;
32080;SDS011;18593;51.426;7.030;2023-04-24T10:10:29;8.13;;;4.43;;
32080;SDS011;18593;51.426;7.030;2023-04-24T10:12:57;9.85;;;5.20;;
32080;SDS011;18593;51.426;7.030;2023-04-24T10:15:27;11.30;;;5.43;;
32080;SDS011;18593;51.426;7.030;2023-04-24T10:17:54;11.13;;;5.80;;
32080;SDS011;18593;51.426;7.030;2023-04-24T10:20:25;12.40;;;6.07;;
32080;SDS011;18593;51.426;7.030;2023-04-24T10:22:56;9.95;;;6.10;;
32080;SDS011;18593;51.426;7.030;2023-04-24T10:25:24;14.07;;;6.93;;
32080;SDS011;18593;51.426;7.030;2023-04-24T10:27:54;14.65;;;6.85;;
32080;SDS011;18593;51.426;7.030;2023-04-24T10:30:26;11.02;;;6.38;;
32080;SDS011;18593;51.426;7.030;2023-04-24T10:35:23;11.27;;;5.57;;
32080;SDS011;18593;51.426;7.030;2023-04-24T10:37:54;12.02;;;5.85;;
32080;SDS011;18593;51.426;7.030;2023-04-24T10:40:25;14.30;;;6.25;;
32080;SDS011;18593;51.426;7.030;2023-04-24T10:42:56;14.30;;;6.50;;
32080;SDS011;18593;51.426;7.030;2023-04-24T10:45:23;16.60;;;5.80;;
32080;SDS011;18593;51.426;7.030;2023-04-24T10:47:58;16.55;;;6.18;;
32080;SDS011;18593;51.426;7.030;2023-04-24T10:50:28;15.05;;;6.22;;
32080;SDS011;18593;51.426;7.030;2023-04-24T10:53:11;13.00;;;5.72;;
32080;SDS011;18593;51.426;7.030;2023-04-24T10:55:44;22.05;;;6.97;;
32080;SDS011;18593;51.426;7.030;2023-04-24T10:58:13;15.88;;;6.40;;
32080;SDS011;18593;51.426;7.030;2023-04-24T11:00:43;17.63;;;6.68;;
32080;SDS011;18593;51.426;7.030;2023-04-24T11:03:25;22.88;;;6.80;;
32080;SDS011;18593;51.426;7.030;2023-04-24T11:05:58;20.40;;;7.78;;
32080;SDS011;18593;51.426;7.030;2023-04-24T11:08:28;22.75;;;7.60;;
32080;SDS011;18593;51.426;7.030;2023-04-24T11:10:59;15.18;;;7.47;;
32080;SDS011;18593;51.426;7.030;2023-04-24T11:16:37;19.88;;;7.32;;
32080;SDS011;18593;51.426;7.030;2023-04-24T11:19:17;18.02;;;6.10;;
32080;SDS011;18593;51.426;7.030;2023-04-24T11:21:49;23.63;;;7.43;;
32080;SDS011;18593;51.426;7.030;2023-04-24T11:24:28;29.33;;;8.88;;
32080;SDS011;18593;51.426;7.030;2023-04-24T11:26:59;16.35;;;7.20;;
32080;SDS011;18593;51.426;7.030;2023-04-24T11:29:39;21.35;;;8.18;;
32080;SDS011;18593;51.426;7.030;2023-04-24T11:32:16;19.73;;;7.65;;
32080;SDS011;18593;51.426;7.030;2023-04-24T11:34:52;20.88;;;6.95;;
32080;SDS011;18593;51.426;7.030;2023-04-24T11:37:22;20.55;;;6.90;;
32080;SDS011;18593;51.426;7.030;2023-04-24T11:39:53;23.88;;;7.63;;
32080;SDS011;18593;51.426;7.030;2023-04-24T11:42:23;24.80;;;8.65;;
32080;SDS011;18593;51.426;7.030;2023-04-24T11:44:51;13.68;;;5.80;;
32080;SDS011;18593;51.426;7.030;2023-04-24T11:47:28;16.83;;;5.43;;
32080;SDS011;18593;51.426;7.030;2023-04-24T11:49:56;17.55;;;5.35;;
32080;SDS011;18593;51.426;7.030;2023-04-24T11:52:24;13.93;;;4.70;;
32080;SDS011;18593;51.426;7.030;2023-04-24T11:54:52;13.13;;;4.75;;
32080;SDS011;18593;51.426;7.030;2023-04-24T11:57:19;14.32;;;4.63;;
32080;SDS011;18593;51.426;7.030;2023-04-24T11:59:47;15.25;;;4.45;;
32080;SDS011;18593;51.426;7.030;2023-04-24T12:02:22;14.55;;;4.55;;
32080;SDS011;18593;51.426;7.030;2023-04-24T12:04:51;14.45;;;4.60;;
32080;SDS011;18593;51.426;7.030;2023-04-24T12:07:19;9.88;;;4.57;;
32080;SDS011;18593;51.426;7.030;2023-04-24T12:09:54;11.68;;;4.70;;
32080;SDS011;18593;51.426;7.030;2023-04-24T12:12:25;14.38;;;5.18;;
32080;SDS011;18593;51.426;7.030;2023-04-24T12:14:54;14.68;;;5.55;;
32080;SDS011;18593;51.426;7.030;2023-04-24T12:17:24;13.10;;;4.63;;
32080;SDS011;18593;51.426;7.030;2023-04-24T12:19:56;13.90;;;5.38;;
32080;SDS011;18593;51.426;7.030;2023-04-24T12:22:26;13.45;;;4.93;;
32080;SDS011;18593;51.426;7.030;2023-04-24T12:24:57;13.23;;;5.40;;
32080;SDS011;18593;51.426;7.030;2023-04-24T12:27:29;23.15;;;6.20;;
32080;SDS011;18593;51.426;7.030;2023-04-24T12:29:58;12.57;;;5.38;;
32080;SDS011;18593;51.426;7.030;2023-04-24T12:32:27;15.82;;;5.50;;
32080;SDS011;18593;51.426;7.030;2023-04-24T12:34:56;13.48;;;5.38;;
32080;SDS011;18593;51.426;7.030;2023-04-24T12:37:26;13.02;;;5.00;;
32080;SDS011;18593;51.426;7.030;2023-04-24T12:39:59;12.15;;;4.40;;
32080;SDS011;18593;51.426;7.030;2023-04-24T12:42:31;15.52;;;5.28;;
32080;SDS011;18593;51.426;7.030;2023-04-24T12:44:59;13.20;;;4.45;;
32080;SDS011;18593;51.426;7.030;2023-04-24T12:47:30;12.63;;;4.47;;
32080;SDS011;18593;51.426;7.030;2023-04-24T12:50:00;9.20;;;4.00;;
32080;SDS011;18593;51.426;7.030;2023-04-24T12:52:29;10.50;;;4.10;;
32080;SDS011;18593;51.426;7.030;2023-04-24T12:54:57;10.52;;;4.70;;
32080;SDS011;18593;51.426;7.030;2023-04-24T12:57:26;9.88;;;3.75;;
32080;SDS011;18593;51.426;7.030;2023-04-24T12:59:56;8.98;;;3.50;;
32080;SDS011;18593;51.426;7.030;2023-04-24T13:02:24;9.82;;;3.63;;
32080;SDS011;18593;51.426;7.030;2023-04-24T13:04:55;11.30;;;3.95;;
32080;SDS011;18593;51.426;7.030;2023-04-24T13:07:25;10.25;;;4.43;;
32080;SDS011;18593;51.426;7.030;2023-04-24T13:09:54;10.00;;;3.83;;
32080;SDS011;18593;51.426;7.030;2023-04-24T13:12:22;6.05;;;3.00;;
32080;SDS011;18593;51.426;7.030;2023-04-24T13:14:50;8.48;;;3.70;;
32080;SDS011;18593;51.426;7.030;2023-04-24T13:17:17;6.97;;;3.10;;
32080;SDS011;18593;51.426;7.030;2023-04-24T13:19:45;5.95;;;2.80;;
32080;SDS011;18593;51.426;7.030;2023-04-24T13:22:12;8.30;;;2.20;;
32080;SDS011;18593;51.426;7.030;2023-04-24T13:24:41;11.48;;;2.50;;
32080;SDS011;18593;51.426;7.030;2023-04-24T13:27:08;6.85;;;1.90;;
32080;SDS011;18593;51.426;7.030;2023-04-24T13:29:36;8.45;;;2.40;;
32080;SDS011;18593;51.426;7.030;2023-04-24T13:32:03;5.53;;;2.20;;
32080;SDS011;18593;51.426;7.030;2023-04-24T13:34:30;6.05;;;1.98;;
32080;SDS011;18593;51.426;7.030;2023-04-24T13:36:59;4.90;;;2.20;;
32080;SDS011;18593;51.426;7.030;2023-04-24T13:39:27;7.90;;;2.45;;
32080;SDS011;18593;51.426;7.030;2023-04-24T13:41:56;7.45;;;2.10;;
32080;SDS011;18593;51.426;7.030;2023-04-24T13:44:24;5.25;;;1.70;;
32080;SDS011;18593;51.426;7.030;2023-04-24T13:46:53;5.65;;;2.10;;
32080;SDS011;18593;51.426;7.030;2023-04-24T13:49:22;7.35;;;1.98;;
32080;SDS011;18593;51.426;7.030;2023-04-24T13:51:51;6.65;;;1.80;;
32080;SDS011;18593;51.426;7.030;2023-04-24T13:54:19;6.00;;;1.73;;
32080;SDS011;18593;51.426;7.030;2023-04-24T13:56:48;6.97;;;2.10;;
32080;SDS011;18593;51.426;7.030;2023-04-24T13:59:17;8.07;;;1.70;;
32080;SDS011;18593;51.426;7.030;2023-04-24T14:01:45;9.18;;;1.83;;
32080;SDS011;18593;51.426;7.030;2023-04-24T14:04:12;3.90;;;1.58;;
32080;SDS011;18593;51.426;7.030;2023-04-24T14:06:40;5.95;;;1.73;;
32080;SDS011;18593;51.426;7.030;2023-04-24T14:09:07;6.75;;;1.98;;
32080;SDS011;18593;51.426;7.030;2023-04-24T14:11:34;4.03;;;1.88;;
32080;SDS011;18593;51.426;7.030;2023-04-24T14:14:02;6.53;;;1.60;;
32080;SDS011;18593;51.426;7.030;2023-04-24T14:16:31;6.80;;;2.20;;
32080;SDS011;18593;51.426;7.030;2023-04-24T14:18:58;6.88;;;1.75;;
32080;SDS011;18593;51.426;7.030;2023-04-24T14:21:25;6.40;;;2.10;;
32080;SDS011;18593;51.426;7.030;2023-04-24T14:23:52;6.65;;;2.03;;
32080;SDS011;18593;51.426;7.030;2023-04-24T14:26:20;5.85;;;1.50;;
32080;SDS011;18593;51.426;7.030;2023-04-24T14:28:47;5.68;;;1.40;;
32080;SDS011;18593;51.426;7.030;2023-04-24T14:31:14;5.38;;;1.77;;
32080;SDS011;18593;51.426;7.030;2023-04-24T14:33:43;5.22;;;1.70;;
32080;SDS011;18593;51.426;7.030;2023-04-24T14:36:14;5.43;;;1.70;;
32080;SDS011;18593;51.426;7.030;2023-04-24T14:38:41;4.25;;;1.70;;
32080;SDS011;18593;51.426;7.030;2023-04-24T14:41:09;5.35;;;1.70;;
32080;SDS011;18593;51.426;7.030;2023-04-24T14:43:37;4.78;;;1.70;;
32080;SDS011;18593;51.426;7.030;2023-04-24T14:46:04;6.18;;;1.92;;
32080;SDS011;18593;51.426;7.030;2023-04-24T14:48:31;3.97;;;1.65;;
32080;SDS011;18593;51.426;7.030;2023-04-24T14:51:00;7.10;;;1.50;;
32080;SDS011;18593;51.426;7.030;2023-04-24T14:53:27;6.18;;;2.20;;
32080;SDS011;18593;51.426;7.030;2023-04-24T14:55:55;5.95;;;2.15;;
32080;SDS011;18593;51.426;7.030;2023-04-24T14:58:22;4.88;;;1.75;;
32080;SDS011;18593;51.426;7.030;2023-04-24T15:00:49;5.20;;;2.10;;
32080;SDS011;18593;51.426;7.030;2023-04-24T15:03:19;5.28;;;2.33;;
32080;SDS011;18593;51.426;7.030;2023-04-24T15:05:47;4.78;;;2.20;;